ASA1344 KSFO-MMSD
Flight info
| Callsign | ASA1344 |
|---|---|
| Flight time | 2h 30m |
| Altitude | 33000 |
| Route | WESLA5 KAYEX DCT LOSHN DCT CLASN DCT OCN J1 SIDGA UT6 IMUSU UT25 LTO J1 SJD |
| Aircraft | B739/M-SDE2E3FGHIRWXY/LB1 |
Departure
| Time | 2026-05-08 17:56 |
|---|---|
| Airport | San Francisco International Airport (KSFO) |
Arrival
| Time | 2026-05-08 20:27 |
|---|---|
| Airport | Los Cabos International Airport (MMSD) |
| Time | Latitude | Longitude | Altitude | Speed | Heading |
|---|---|---|---|---|---|
| 2026-05-08 17:19 | 37.61456 | -122.38323 | 21 ft | 0 kts | 28° |
| 2026-05-08 17:44 | 37.61445 | -122.38330 | 22 ft | 4 kts | 30° |
| 2026-05-08 17:44 | 37.61422 | -122.38348 | 23 ft | 4 kts | 44° |
| 2026-05-08 17:45 | 37.61411 | -122.38371 | 21 ft | 4 kts | 108° |
| 2026-05-08 17:45 | 37.61409 | -122.38368 | 21 ft | 4 kts | 118° |
| 2026-05-08 17:45 | 37.61396 | -122.38339 | 22 ft | 4 kts | 118° |
| 2026-05-08 17:45 | 37.61384 | -122.38310 | 21 ft | 2 kts | 116° |
| 2026-05-08 17:46 | 37.61384 | -122.38308 | 21 ft | 1 kts | 116° |
| 2026-05-08 17:49 | 37.61383 | -122.38307 | 21 ft | 1 kts | 116° |
| 2026-05-08 17:49 | 37.61372 | -122.38282 | 22 ft | 7 kts | 117° |
| 2026-05-08 17:49 | 37.61347 | -122.38209 | 21 ft | 10 kts | 96° |
| 2026-05-08 17:50 | 37.61382 | -122.38145 | 23 ft | 10 kts | 28° |
| 2026-05-08 17:50 | 37.61396 | -122.38070 | 21 ft | 9 kts | 111° |
| 2026-05-08 17:50 | 37.61366 | -122.37997 | 21 ft | 9 kts | 118° |
| 2026-05-08 17:50 | 37.61337 | -122.37927 | 21 ft | 9 kts | 118° |
| 2026-05-08 17:51 | 37.61308 | -122.37858 | 21 ft | 9 kts | 116° |
| 2026-05-08 17:51 | 37.61280 | -122.37790 | 21 ft | 9 kts | 118° |
| 2026-05-08 17:51 | 37.61249 | -122.37717 | 22 ft | 11 kts | 118° |
| 2026-05-08 17:51 | 37.61230 | -122.37595 | 21 ft | 16 kts | 83° |
| 2026-05-08 17:52 | 37.61293 | -122.37477 | 21 ft | 17 kts | 32° |
| 2026-05-08 17:52 | 37.61398 | -122.37408 | 23 ft | 17 kts | 27° |
| 2026-05-08 17:52 | 37.61559 | -122.37227 | 21 ft | 16 kts | 78° |
| 2026-05-08 17:53 | 37.61544 | -122.37097 | 21 ft | 15 kts | 115° |
| 2026-05-08 17:53 | 37.61495 | -122.36976 | 22 ft | 16 kts | 120° |
| 2026-05-08 17:53 | 37.61416 | -122.36856 | 21 ft | 20 kts | 135° |
| 2026-05-08 17:53 | 37.61325 | -122.36692 | 21 ft | 25 kts | 118° |
| 2026-05-08 17:54 | 37.61239 | -122.36480 | 21 ft | 29 kts | 118° |
| 2026-05-08 17:54 | 37.61148 | -122.36263 | 21 ft | 27 kts | 118° |
| 2026-05-08 17:54 | 37.61061 | -122.36059 | 21 ft | 26 kts | 114° |
| 2026-05-08 17:54 | 37.61121 | -122.35889 | 21 ft | 19 kts | 28° |
| 2026-05-08 17:55 | 37.61201 | -122.35912 | 21 ft | 13 kts | 299° |
| 2026-05-08 17:55 | 37.61242 | -122.36010 | 22 ft | 15 kts | 297° |
| 2026-05-08 17:55 | 37.61390 | -122.36365 | 21 ft | 76 kts | 298° |
| 2026-05-08 17:55 | 37.61726 | -122.37159 | 21 ft | 127 kts | 297° |
| 2026-05-08 17:56 | 37.62193 | -122.38298 | 51 ft | 162 kts | 298° |
| 2026-05-08 17:56 | 37.62739 | -122.39578 | 477 ft | 167 kts | 297° |
| 2026-05-08 17:56 | 37.63272 | -122.40960 | 811 ft | 184 kts | 294° |
| 2026-05-08 17:56 | 37.63851 | -122.42442 | 1148 ft | 198 kts | 298° |
| 2026-05-08 17:57 | 37.64580 | -122.44025 | 1320 ft | 219 kts | 300° |
| 2026-05-08 17:57 | 37.65377 | -122.45750 | 1425 ft | 237 kts | 298° |
| 2026-05-08 17:57 | 37.66204 | -122.47597 | 1809 ft | 244 kts | 300° |
| 2026-05-08 17:57 | 37.66930 | -122.49552 | 2435 ft | 253 kts | 280° |
| 2026-05-08 17:58 | 37.66715 | -122.51756 | 3163 ft | 261 kts | 247° |
| 2026-05-08 17:58 | 37.65599 | -122.53579 | 3836 ft | 270 kts | 219° |
| 2026-05-08 17:58 | 37.63894 | -122.54594 | 4579 ft | 277 kts | 190° |
| 2026-05-08 17:58 | 37.61983 | -122.54383 | 5344 ft | 279 kts | 162° |
| 2026-05-08 17:59 | 37.60183 | -122.53471 | 6028 ft | 284 kts | 156° |
| 2026-05-08 17:59 | 37.58378 | -122.52421 | 6755 ft | 287 kts | 156° |
| 2026-05-08 17:59 | 37.56558 | -122.51390 | 7479 ft | 289 kts | 157° |
| 2026-05-08 17:59 | 37.54702 | -122.50395 | 8198 ft | 290 kts | 159° |
| 2026-05-08 18:00 | 37.52817 | -122.49416 | 8889 ft | 293 kts | 160° |
| 2026-05-08 18:00 | 37.49041 | -122.47326 | 10235 ft | 302 kts | 144° |
| 2026-05-08 18:00 | 37.47509 | -122.45394 | 10480 ft | 322 kts | 130° |
| 2026-05-08 18:01 | 37.46048 | -122.43132 | 10641 ft | 343 kts | 129° |
| 2026-05-08 18:01 | 37.44553 | -122.40761 | 10977 ft | 356 kts | 129° |
| 2026-05-08 18:01 | 37.43019 | -122.38323 | 11662 ft | 355 kts | 129° |
| 2026-05-08 18:01 | 37.41467 | -122.35869 | 12170 ft | 362 kts | 129° |
| 2026-05-08 18:02 | 37.39885 | -122.33383 | 12767 ft | 365 kts | 130° |
| 2026-05-08 18:02 | 37.38805 | -122.31693 | 13142 ft | 369 kts | 130° |
| 2026-05-08 18:02 | 37.36660 | -122.28350 | 13941 ft | 371 kts | 130° |
| 2026-05-08 18:02 | 37.35036 | -122.25829 | 14582 ft | 372 kts | 130° |
| 2026-05-08 18:03 | 37.33395 | -122.23286 | 15007 ft | 378 kts | 130° |
| 2026-05-08 18:03 | 37.31729 | -122.20709 | 15534 ft | 381 kts | 130° |
| 2026-05-08 18:03 | 37.30060 | -122.18124 | 16102 ft | 381 kts | 130° |
| 2026-05-08 18:03 | 37.28403 | -122.15558 | 16579 ft | 386 kts | 130° |
| 2026-05-08 18:04 | 37.26698 | -122.12931 | 17005 ft | 391 kts | 130° |
| 2026-05-08 18:04 | 37.24973 | -122.10280 | 17509 ft | 393 kts | 130° |
| 2026-05-08 18:04 | 37.23238 | -122.07622 | 17996 ft | 396 kts | 130° |
| 2026-05-08 18:04 | 37.21483 | -122.04931 | 18471 ft | 399 kts | 130° |
| 2026-05-08 18:05 | 37.19725 | -122.02223 | 18914 ft | 401 kts | 130° |
| 2026-05-08 18:05 | 37.17956 | -121.99501 | 19336 ft | 404 kts | 130° |
| 2026-05-08 18:05 | 37.16176 | -121.96763 | 19752 ft | 407 kts | 130° |
| 2026-05-08 18:05 | 37.14375 | -121.93999 | 20187 ft | 410 kts | 130° |
| 2026-05-08 18:06 | 37.12566 | -121.91226 | 20644 ft | 413 kts | 130° |
| 2026-05-08 18:06 | 37.10764 | -121.88467 | 21066 ft | 416 kts | 130° |
| 2026-05-08 18:06 | 37.08924 | -121.85652 | 21515 ft | 418 kts | 130° |
| 2026-05-08 18:06 | 37.07074 | -121.82825 | 21946 ft | 421 kts | 130° |
| 2026-05-08 18:07 | 37.05213 | -121.79983 | 22361 ft | 424 kts | 130° |
| 2026-05-08 18:07 | 37.03336 | -121.77120 | 22797 ft | 426 kts | 130° |
| 2026-05-08 18:07 | 37.01453 | -121.74248 | 23230 ft | 428 kts | 129° |
| 2026-05-08 18:07 | 36.99552 | -121.71352 | 23665 ft | 431 kts | 129° |
| 2026-05-08 18:08 | 36.97647 | -121.68452 | 24007 ft | 433 kts | 129° |
| 2026-05-08 18:08 | 36.95750 | -121.65568 | 24336 ft | 436 kts | 129° |
| 2026-05-08 18:08 | 36.93817 | -121.62632 | 24666 ft | 439 kts | 129° |
| 2026-05-08 18:08 | 36.91874 | -121.59682 | 25002 ft | 441 kts | 130° |
| 2026-05-08 18:09 | 36.89916 | -121.56713 | 25343 ft | 443 kts | 130° |
| 2026-05-08 18:09 | 36.87953 | -121.53738 | 25685 ft | 445 kts | 130° |
| 2026-05-08 18:09 | 36.85977 | -121.50747 | 26017 ft | 448 kts | 129° |
| 2026-05-08 18:09 | 36.83991 | -121.47743 | 26356 ft | 450 kts | 129° |
| 2026-05-08 18:10 | 36.81991 | -121.44720 | 26676 ft | 452 kts | 129° |
| 2026-05-08 18:10 | 36.79984 | -121.41690 | 26989 ft | 455 kts | 129° |
| 2026-05-08 18:10 | 36.77989 | -121.38681 | 27287 ft | 457 kts | 129° |
| 2026-05-08 18:10 | 36.75958 | -121.35619 | 27596 ft | 459 kts | 129° |
| 2026-05-08 18:11 | 36.73916 | -121.32545 | 27892 ft | 462 kts | 129° |
| 2026-05-08 18:11 | 36.71861 | -121.29454 | 28196 ft | 464 kts | 129° |
| 2026-05-08 18:11 | 36.69799 | -121.26354 | 28510 ft | 466 kts | 129° |
| 2026-05-08 18:11 | 36.67724 | -121.23239 | 28820 ft | 468 kts | 129° |
| 2026-05-08 18:12 | 36.65643 | -121.20117 | 29113 ft | 470 kts | 129° |
| 2026-05-08 18:12 | 36.63549 | -121.16979 | 29383 ft | 473 kts | 129° |
| 2026-05-08 18:12 | 36.61440 | -121.13820 | 29665 ft | 475 kts | 129° |
| 2026-05-08 18:12 | 36.59352 | -121.10695 | 29946 ft | 477 kts | 129° |
| 2026-05-08 18:13 | 36.57221 | -121.07512 | 30212 ft | 479 kts | 129° |
| 2026-05-08 18:13 | 36.55087 | -121.04324 | 30477 ft | 480 kts | 129° |
| 2026-05-08 18:13 | 36.52946 | -121.01129 | 30714 ft | 482 kts | 129° |
| 2026-05-08 18:13 | 36.50790 | -120.97914 | 30940 ft | 484 kts | 129° |
| 2026-05-08 18:14 | 36.48635 | -120.94706 | 31253 ft | 483 kts | 128° |
| 2026-05-08 18:14 | 36.46492 | -120.91504 | 31620 ft | 481 kts | 128° |
| 2026-05-08 18:14 | 36.44358 | -120.88303 | 31952 ft | 480 kts | 128° |
| 2026-05-08 18:14 | 36.42230 | -120.85107 | 32224 ft | 480 kts | 128° |
| 2026-05-08 18:15 | 36.40131 | -120.81954 | 32470 ft | 481 kts | 128° |
| 2026-05-08 18:15 | 36.38000 | -120.78757 | 32741 ft | 481 kts | 128° |
| 2026-05-08 18:15 | 36.35869 | -120.75563 | 33042 ft | 479 kts | 128° |
| 2026-05-08 18:15 | 36.33741 | -120.72380 | 33104 ft | 481 kts | 128° |
| 2026-05-08 18:16 | 36.29445 | -120.65963 | 33108 ft | 487 kts | 128° |
| 2026-05-08 18:16 | 36.25089 | -120.59471 | 33115 ft | 492 kts | 128° |
| 2026-05-08 18:17 | 36.20686 | -120.52921 | 33118 ft | 497 kts | 128° |
| 2026-05-08 18:17 | 36.16240 | -120.46321 | 33103 ft | 501 kts | 128° |
| 2026-05-08 18:18 | 36.11802 | -120.39746 | 33103 ft | 501 kts | 128° |
| 2026-05-08 18:18 | 36.07327 | -120.33128 | 33102 ft | 502 kts | 128° |
| 2026-05-08 18:19 | 36.02849 | -120.26517 | 33090 ft | 501 kts | 128° |
| 2026-05-08 18:19 | 35.98370 | -120.19919 | 33100 ft | 501 kts | 128° |
| 2026-05-08 18:20 | 35.93924 | -120.13382 | 33093 ft | 500 kts | 128° |
| 2026-05-08 18:20 | 35.89454 | -120.06819 | 33102 ft | 499 kts | 128° |
| 2026-05-08 18:21 | 35.85073 | -120.00190 | 33086 ft | 497 kts | 122° |
| 2026-05-08 18:21 | 35.81913 | -119.92697 | 33100 ft | 492 kts | 111° |
| 2026-05-08 18:22 | 35.79126 | -119.84998 | 33096 ft | 492 kts | 112° |
| 2026-05-08 18:22 | 35.76286 | -119.77344 | 33094 ft | 492 kts | 112° |
| 2026-05-08 18:23 | 35.73403 | -119.69715 | 33082 ft | 491 kts | 113° |
| 2026-05-08 18:23 | 35.70533 | -119.62143 | 33087 ft | 491 kts | 113° |
| 2026-05-08 18:24 | 35.67600 | -119.54560 | 33081 ft | 492 kts | 118° |
| 2026-05-08 18:24 | 35.63392 | -119.47952 | 33094 ft | 493 kts | 136° |
| 2026-05-08 18:25 | 35.57953 | -119.42822 | 33089 ft | 494 kts | 144° |
| 2026-05-08 18:25 | 35.52379 | -119.37988 | 33084 ft | 493 kts | 144° |
| 2026-05-08 18:26 | 35.46799 | -119.33104 | 33074 ft | 492 kts | 144° |
| 2026-05-08 18:26 | 35.41248 | -119.28195 | 33072 ft | 492 kts | 144° |
| 2026-05-08 18:27 | 35.36646 | -119.24112 | 33070 ft | 491 kts | 144° |
| 2026-05-08 18:27 | 35.30223 | -119.18424 | 33069 ft | 490 kts | 144° |
| 2026-05-08 18:28 | 35.24700 | -119.13546 | 33072 ft | 489 kts | 144° |
| 2026-05-08 18:28 | 35.19183 | -119.08682 | 33072 ft | 489 kts | 144° |
| 2026-05-08 18:29 | 35.13666 | -119.03827 | 33078 ft | 488 kts | 144° |
| 2026-05-08 18:29 | 35.08193 | -118.99019 | 33085 ft | 488 kts | 144° |
| 2026-05-08 18:30 | 35.02683 | -118.94187 | 33094 ft | 488 kts | 144° |
| 2026-05-08 18:30 | 34.97163 | -118.89354 | 33073 ft | 489 kts | 144° |
| 2026-05-08 18:31 | 34.91620 | -118.84509 | 33071 ft | 492 kts | 144° |
| 2026-05-08 18:31 | 34.86057 | -118.79655 | 33077 ft | 492 kts | 144° |
| 2026-05-08 18:32 | 34.80519 | -118.74830 | 33068 ft | 494 kts | 144° |
| 2026-05-08 18:32 | 34.74926 | -118.69966 | 33064 ft | 495 kts | 144° |
| 2026-05-08 18:33 | 34.69316 | -118.65096 | 33056 ft | 493 kts | 144° |
| 2026-05-08 18:33 | 34.63778 | -118.60296 | 33039 ft | 487 kts | 144° |
| 2026-05-08 18:34 | 34.58315 | -118.55569 | 33038 ft | 486 kts | 144° |
| 2026-05-08 18:34 | 34.52790 | -118.50796 | 33043 ft | 489 kts | 145° |
| 2026-05-08 18:35 | 34.47234 | -118.46005 | 33038 ft | 492 kts | 145° |
| 2026-05-08 18:35 | 34.41659 | -118.41206 | 33078 ft | 491 kts | 144° |
| 2026-05-08 18:36 | 34.36128 | -118.36452 | 33100 ft | 489 kts | 145° |
| 2026-05-08 18:36 | 34.30585 | -118.31695 | 33097 ft | 488 kts | 145° |
| 2026-05-08 18:37 | 34.25056 | -118.26959 | 33084 ft | 486 kts | 145° |
| 2026-05-08 18:37 | 34.19540 | -118.22241 | 33084 ft | 484 kts | 145° |
| 2026-05-08 18:38 | 34.14078 | -118.17577 | 33078 ft | 484 kts | 145° |
| 2026-05-08 18:38 | 34.08595 | -118.12903 | 33075 ft | 483 kts | 145° |
| 2026-05-08 18:39 | 34.03111 | -118.08235 | 33099 ft | 482 kts | 145° |
| 2026-05-08 18:39 | 33.97626 | -118.03574 | 33085 ft | 482 kts | 145° |
| 2026-05-08 18:40 | 33.92185 | -117.98958 | 33085 ft | 482 kts | 145° |
| 2026-05-08 18:40 | 33.86703 | -117.94315 | 33083 ft | 482 kts | 145° |
| 2026-05-08 18:41 | 33.81225 | -117.89682 | 33080 ft | 482 kts | 145° |
| 2026-05-08 18:41 | 33.75739 | -117.85050 | 33085 ft | 482 kts | 145° |
| 2026-05-08 18:42 | 33.70248 | -117.80421 | 33073 ft | 482 kts | 146° |
| 2026-05-08 18:42 | 33.64792 | -117.75828 | 33073 ft | 482 kts | 146° |
| 2026-05-08 18:43 | 33.59298 | -117.71212 | 33074 ft | 482 kts | 145° |
| 2026-05-08 18:43 | 33.53795 | -117.66595 | 33067 ft | 483 kts | 145° |
| 2026-05-08 18:44 | 33.48300 | -117.61991 | 33078 ft | 482 kts | 145° |
| 2026-05-08 18:44 | 33.42808 | -117.57398 | 33070 ft | 481 kts | 145° |
| 2026-05-08 18:45 | 33.37370 | -117.52856 | 33067 ft | 479 kts | 145° |
| 2026-05-08 18:45 | 33.31910 | -117.48302 | 33072 ft | 478 kts | 145° |
| 2026-05-08 18:46 | 33.26445 | -117.43753 | 33075 ft | 478 kts | 145° |
| 2026-05-08 18:46 | 33.20563 | -117.40124 | 33068 ft | 477 kts | 161° |
| 2026-05-08 18:47 | 33.14283 | -117.37571 | 33060 ft | 478 kts | 161° |
| 2026-05-08 18:47 | 33.08034 | -117.35018 | 33064 ft | 478 kts | 161° |
| 2026-05-08 18:48 | 33.01754 | -117.32389 | 33068 ft | 478 kts | 160° |
| 2026-05-08 18:48 | 32.95479 | -117.29746 | 33077 ft | 478 kts | 160° |
| 2026-05-08 18:49 | 32.89200 | -117.27108 | 33087 ft | 479 kts | 160° |
| 2026-05-08 18:49 | 32.82958 | -117.24492 | 33095 ft | 479 kts | 160° |
| 2026-05-08 18:50 | 32.77017 | -117.20985 | 33097 ft | 478 kts | 144° |
| 2026-05-08 18:50 | 32.72860 | -117.16669 | 33087 ft | 478 kts | 135° |
| 2026-05-08 18:51 | 32.67290 | -117.10212 | 33087 ft | 479 kts | 136° |
| 2026-05-08 18:51 | 32.62492 | -117.04783 | 33074 ft | 479 kts | 136° |
| 2026-05-08 18:52 | 32.57642 | -116.99353 | 33076 ft | 479 kts | 136° |
| 2026-05-08 18:52 | 32.52750 | -116.93992 | 33097 ft | 479 kts | 139° |
| 2026-05-08 18:53 | 32.47597 | -116.88976 | 33102 ft | 479 kts | 141° |
| 2026-05-08 18:53 | 32.42390 | -116.84063 | 33090 ft | 479 kts | 141° |
| 2026-05-08 18:54 | 32.37238 | -116.79146 | 33088 ft | 479 kts | 141° |
| 2026-05-08 18:54 | 32.32069 | -116.74177 | 33069 ft | 479 kts | 140° |
| 2026-05-08 18:55 | 32.24314 | -116.66728 | 33073 ft | 479 kts | 141° |
| 2026-05-08 18:56 | 32.20020 | -116.62614 | 33063 ft | 478 kts | 140° |
| 2026-05-08 18:56 | 32.14016 | -116.56860 | 33071 ft | 478 kts | 140° |
| 2026-05-08 18:57 | 32.09779 | -116.52670 | 33064 ft | 478 kts | 139° |
| 2026-05-08 18:57 | 32.04700 | -116.47586 | 33074 ft | 479 kts | 139° |
| 2026-05-08 18:58 | 31.98886 | -116.41795 | 33067 ft | 478 kts | 140° |
| 2026-05-08 18:58 | 31.93802 | -116.36757 | 33071 ft | 478 kts | 139° |
| 2026-05-08 18:59 | 31.89572 | -116.32573 | 33067 ft | 477 kts | 139° |
| 2026-05-08 18:59 | 31.84490 | -116.27553 | 33074 ft | 477 kts | 140° |
| 2026-05-08 19:00 | 31.79415 | -116.22545 | 33067 ft | 476 kts | 140° |
| 2026-05-08 19:00 | 31.73506 | -116.16735 | 33067 ft | 476 kts | 141° |
| 2026-05-08 19:01 | 31.69160 | -116.12774 | 33059 ft | 476 kts | 143° |
| 2026-05-08 19:01 | 31.63847 | -116.08127 | 33051 ft | 476 kts | 143° |
| 2026-05-08 19:02 | 31.58552 | -116.03475 | 33055 ft | 475 kts | 143° |
| 2026-05-08 19:02 | 31.53289 | -115.98811 | 33051 ft | 475 kts | 142° |
| 2026-05-08 19:03 | 31.48058 | -115.94164 | 33062 ft | 475 kts | 143° |
| 2026-05-08 19:03 | 31.42794 | -115.89492 | 33058 ft | 475 kts | 143° |
| 2026-05-08 19:04 | 31.37525 | -115.84826 | 33045 ft | 475 kts | 143° |
| 2026-05-08 19:04 | 31.32261 | -115.80172 | 33053 ft | 474 kts | 143° |
| 2026-05-08 19:05 | 31.26993 | -115.75520 | 33050 ft | 474 kts | 143° |
| 2026-05-08 19:05 | 31.21759 | -115.70906 | 33051 ft | 474 kts | 143° |
| 2026-05-08 19:06 | 31.16492 | -115.66269 | 33060 ft | 474 kts | 143° |
| 2026-05-08 19:06 | 31.11225 | -115.61639 | 33056 ft | 474 kts | 143° |
| 2026-05-08 19:07 | 31.05950 | -115.57008 | 33053 ft | 475 kts | 143° |
| 2026-05-08 19:07 | 31.00708 | -115.52412 | 33061 ft | 475 kts | 143° |
| 2026-05-08 19:08 | 30.95426 | -115.47788 | 33039 ft | 475 kts | 143° |
| 2026-05-08 19:08 | 30.90147 | -115.43172 | 33040 ft | 474 kts | 143° |
| 2026-05-08 19:09 | 30.84868 | -115.38562 | 33023 ft | 474 kts | 143° |
| 2026-05-08 19:09 | 30.79632 | -115.33982 | 33022 ft | 474 kts | 142° |
| 2026-05-08 19:10 | 30.74446 | -115.29228 | 33019 ft | 475 kts | 141° |
| 2026-05-08 19:10 | 30.69283 | -115.24413 | 32991 ft | 476 kts | 141° |
| 2026-05-08 19:11 | 30.64094 | -115.19600 | 32989 ft | 477 kts | 141° |
| 2026-05-08 19:11 | 30.58930 | -115.14840 | 32996 ft | 478 kts | 141° |
| 2026-05-08 19:12 | 30.53721 | -115.10054 | 32971 ft | 477 kts | 141° |
| 2026-05-08 19:12 | 30.48520 | -115.05283 | 32975 ft | 477 kts | 141° |
| 2026-05-08 19:13 | 30.43317 | -115.00515 | 32956 ft | 476 kts | 141° |
| 2026-05-08 19:13 | 30.38112 | -114.95751 | 32966 ft | 477 kts | 141° |
| 2026-05-08 19:14 | 30.32942 | -114.91027 | 32971 ft | 477 kts | 141° |
| 2026-05-08 19:14 | 30.27733 | -114.86273 | 32972 ft | 477 kts | 141° |
| 2026-05-08 19:15 | 30.22522 | -114.81524 | 32973 ft | 477 kts | 141° |
| 2026-05-08 19:15 | 30.17312 | -114.76782 | 32979 ft | 477 kts | 141° |
| 2026-05-08 19:16 | 30.12137 | -114.72079 | 32972 ft | 476 kts | 141° |
| 2026-05-08 19:16 | 30.06925 | -114.67349 | 32980 ft | 476 kts | 141° |
| 2026-05-08 19:17 | 30.01715 | -114.62627 | 32961 ft | 476 kts | 141° |
| 2026-05-08 19:17 | 29.96502 | -114.57909 | 32971 ft | 476 kts | 142° |
| 2026-05-08 19:18 | 29.91324 | -114.53228 | 32963 ft | 476 kts | 141° |
| 2026-05-08 19:18 | 29.86107 | -114.48520 | 32964 ft | 476 kts | 142° |
| 2026-05-08 19:19 | 29.80892 | -114.43819 | 32978 ft | 476 kts | 142° |
| 2026-05-08 19:19 | 29.75673 | -114.39121 | 32974 ft | 476 kts | 142° |
| 2026-05-08 19:20 | 29.70489 | -114.34461 | 32974 ft | 476 kts | 142° |
| 2026-05-08 19:20 | 29.65260 | -114.29766 | 32980 ft | 477 kts | 142° |
| 2026-05-08 19:21 | 29.60029 | -114.25076 | 32970 ft | 477 kts | 142° |
| 2026-05-08 19:21 | 29.54790 | -114.20386 | 32970 ft | 477 kts | 142° |
| 2026-05-08 19:22 | 29.49587 | -114.15734 | 32972 ft | 477 kts | 142° |
| 2026-05-08 19:22 | 29.44347 | -114.11055 | 32985 ft | 478 kts | 142° |
| 2026-05-08 19:23 | 29.39096 | -114.06372 | 32994 ft | 479 kts | 142° |
| 2026-05-08 19:23 | 29.33835 | -114.01687 | 32997 ft | 479 kts | 142° |
| 2026-05-08 19:24 | 29.28605 | -113.97035 | 32985 ft | 479 kts | 142° |
| 2026-05-08 19:24 | 29.23343 | -113.92362 | 32989 ft | 479 kts | 142° |
| 2026-05-08 19:25 | 29.18068 | -113.87683 | 32985 ft | 480 kts | 142° |
| 2026-05-08 19:25 | 29.12787 | -113.83003 | 32996 ft | 480 kts | 142° |
| 2026-05-08 19:26 | 29.07533 | -113.78355 | 33010 ft | 481 kts | 142° |
| 2026-05-08 19:26 | 29.02247 | -113.73685 | 32992 ft | 481 kts | 143° |
| 2026-05-08 19:27 | 28.96938 | -113.68999 | 33003 ft | 482 kts | 143° |
| 2026-05-08 19:27 | 28.91628 | -113.64316 | 33009 ft | 483 kts | 142° |
| 2026-05-08 19:28 | 28.86342 | -113.59660 | 32984 ft | 483 kts | 143° |
| 2026-05-08 19:28 | 28.81021 | -113.54979 | 33006 ft | 483 kts | 143° |
| 2026-05-08 19:29 | 28.75703 | -113.50307 | 32992 ft | 482 kts | 143° |
| 2026-05-08 19:29 | 28.70387 | -113.45644 | 32980 ft | 482 kts | 143° |
| 2026-05-08 19:30 | 28.65100 | -113.41012 | 32973 ft | 483 kts | 143° |
| 2026-05-08 19:30 | 28.59774 | -113.36352 | 32980 ft | 483 kts | 143° |
| 2026-05-08 19:31 | 28.54440 | -113.31691 | 32974 ft | 484 kts | 143° |
| 2026-05-08 19:31 | 28.49099 | -113.27030 | 32984 ft | 484 kts | 143° |
| 2026-05-08 19:32 | 28.43790 | -113.22402 | 32979 ft | 484 kts | 143° |
| 2026-05-08 19:32 | 28.38446 | -113.17751 | 32983 ft | 484 kts | 143° |
| 2026-05-08 19:33 | 28.33097 | -113.13102 | 32991 ft | 484 kts | 144° |
| 2026-05-08 19:33 | 28.27752 | -113.08461 | 32991 ft | 484 kts | 144° |
| 2026-05-08 19:34 | 28.22402 | -113.03822 | 32986 ft | 484 kts | 144° |
| 2026-05-08 19:34 | 28.17085 | -112.99219 | 32987 ft | 484 kts | 144° |
| 2026-05-08 19:35 | 28.11727 | -112.94585 | 32983 ft | 484 kts | 144° |
| 2026-05-08 19:35 | 28.06375 | -112.89963 | 32975 ft | 484 kts | 144° |
| 2026-05-08 19:36 | 28.01022 | -112.85345 | 32990 ft | 484 kts | 144° |
| 2026-05-08 19:36 | 27.95691 | -112.80752 | 32973 ft | 485 kts | 144° |
| 2026-05-08 19:37 | 27.90323 | -112.76133 | 32975 ft | 485 kts | 144° |
| 2026-05-08 19:37 | 27.84951 | -112.71517 | 32957 ft | 485 kts | 145° |
| 2026-05-08 19:38 | 27.79578 | -112.66907 | 32966 ft | 485 kts | 145° |
| 2026-05-08 19:38 | 27.74240 | -112.62331 | 32968 ft | 485 kts | 145° |
| 2026-05-08 19:39 | 27.68863 | -112.57728 | 32968 ft | 485 kts | 145° |
| 2026-05-08 19:39 | 27.63491 | -112.53135 | 32969 ft | 485 kts | 145° |
| 2026-05-08 19:40 | 27.58127 | -112.48555 | 32955 ft | 480 kts | 145° |
| 2026-05-08 19:40 | 27.52861 | -112.44061 | 32954 ft | 476 kts | 145° |
| 2026-05-08 19:41 | 27.47575 | -112.39560 | 32981 ft | 476 kts | 145° |
| 2026-05-08 19:41 | 27.42292 | -112.35065 | 32965 ft | 476 kts | 145° |
| 2026-05-08 19:42 | 27.37002 | -112.30569 | 32964 ft | 477 kts | 145° |
| 2026-05-08 19:42 | 27.31720 | -112.26148 | 32958 ft | 476 kts | 148° |
| 2026-05-08 19:43 | 27.26122 | -112.22194 | 32973 ft | 475 kts | 152° |
| 2026-05-08 19:43 | 27.20440 | -112.18395 | 32976 ft | 476 kts | 152° |
| 2026-05-08 19:44 | 27.14772 | -112.14549 | 32970 ft | 476 kts | 151° |
| 2026-05-08 19:44 | 27.09160 | -112.10690 | 32980 ft | 476 kts | 152° |
| 2026-05-08 19:45 | 27.03514 | -112.06798 | 32964 ft | 477 kts | 152° |
| 2026-05-08 19:45 | 26.97851 | -112.02900 | 32983 ft | 477 kts | 152° |
| 2026-05-08 19:46 | 26.92184 | -111.99007 | 32974 ft | 478 kts | 152° |
| 2026-05-08 19:46 | 26.83707 | -111.93194 | 32982 ft | 478 kts | 153° |
| 2026-05-08 19:47 | 26.78027 | -111.89302 | 32976 ft | 479 kts | 153° |
| 2026-05-08 19:47 | 26.72347 | -111.85416 | 32976 ft | 479 kts | 153° |
| 2026-05-08 19:48 | 26.66656 | -111.81528 | 32980 ft | 479 kts | 153° |
| 2026-05-08 19:48 | 26.61012 | -111.77675 | 32965 ft | 480 kts | 154° |
| 2026-05-08 19:49 | 26.55316 | -111.73790 | 32978 ft | 480 kts | 154° |
| 2026-05-08 19:49 | 26.49610 | -111.69932 | 32965 ft | 479 kts | 155° |
| 2026-05-08 19:50 | 26.43922 | -111.66039 | 32981 ft | 480 kts | 154° |
| 2026-05-08 19:50 | 26.38273 | -111.62176 | 32983 ft | 480 kts | 154° |
| 2026-05-08 19:51 | 26.32569 | -111.58309 | 32975 ft | 480 kts | 154° |
| 2026-05-08 19:51 | 26.26865 | -111.54447 | 32987 ft | 479 kts | 154° |
| 2026-05-08 19:52 | 26.21166 | -111.50587 | 32993 ft | 480 kts | 154° |
| 2026-05-08 19:52 | 26.15503 | -111.46754 | 32996 ft | 480 kts | 154° |
| 2026-05-08 19:53 | 26.09802 | -111.42899 | 32996 ft | 479 kts | 155° |
| 2026-05-08 19:53 | 26.04101 | -111.39041 | 32995 ft | 480 kts | 155° |
| 2026-05-08 19:54 | 25.98382 | -111.35197 | 32998 ft | 480 kts | 155° |
| 2026-05-08 19:54 | 25.92537 | -111.31847 | 33008 ft | 474 kts | 161° |
| 2026-05-08 19:55 | 25.86559 | -111.28767 | 32997 ft | 474 kts | 161° |
| 2026-05-08 19:55 | 25.80582 | -111.25675 | 32991 ft | 474 kts | 161° |
| 2026-05-08 19:56 | 25.74617 | -111.22569 | 32988 ft | 474 kts | 161° |
| 2026-05-08 19:56 | 25.68714 | -111.19430 | 32990 ft | 474 kts | 161° |
| 2026-05-08 19:57 | 25.62772 | -111.16266 | 32986 ft | 473 kts | 161° |
| 2026-05-08 19:57 | 25.56834 | -111.13118 | 32949 ft | 473 kts | 162° |
| 2026-05-08 19:58 | 25.50895 | -111.09985 | 32948 ft | 472 kts | 162° |
| 2026-05-08 19:58 | 25.44954 | -111.06884 | 32966 ft | 473 kts | 162° |
| 2026-05-08 19:59 | 25.39056 | -111.03758 | 32968 ft | 474 kts | 162° |
| 2026-05-08 19:59 | 25.33097 | -111.00658 | 32953 ft | 474 kts | 162° |
| 2026-05-08 20:00 | 25.27158 | -110.97498 | 32950 ft | 473 kts | 162° |
| 2026-05-08 20:00 | 25.21259 | -110.94384 | 32957 ft | 473 kts | 162° |
| 2026-05-08 20:01 | 25.15323 | -110.91268 | 32951 ft | 473 kts | 162° |
| 2026-05-08 20:01 | 25.09383 | -110.88158 | 32949 ft | 473 kts | 162° |
| 2026-05-08 20:02 | 25.03439 | -110.85046 | 32926 ft | 472 kts | 163° |
| 2026-05-08 20:02 | 24.97516 | -110.81948 | 32940 ft | 471 kts | 162° |
| 2026-05-08 20:03 | 24.91627 | -110.78870 | 32940 ft | 471 kts | 163° |
| 2026-05-08 20:03 | 24.85706 | -110.75788 | 32939 ft | 471 kts | 163° |
| 2026-05-08 20:04 | 24.79791 | -110.72698 | 32940 ft | 470 kts | 163° |
| 2026-05-08 20:04 | 24.73959 | -110.69650 | 32908 ft | 450 kts | 163° |
| 2026-05-08 20:05 | 24.71172 | -110.68191 | 32737 ft | 439 kts | 163° |
| 2026-05-08 20:05 | 24.68469 | -110.66784 | 32376 ft | 432 kts | 163° |
| 2026-05-08 20:05 | 24.65759 | -110.65379 | 31878 ft | 428 kts | 163° |
| 2026-05-08 20:05 | 24.63078 | -110.63993 | 31432 ft | 425 kts | 163° |
| 2026-05-08 20:06 | 24.60416 | -110.62615 | 30966 ft | 422 kts | 162° |
| 2026-05-08 20:06 | 24.57771 | -110.61245 | 30507 ft | 419 kts | 162° |
| 2026-05-08 20:06 | 24.55144 | -110.59884 | 30018 ft | 418 kts | 162° |
| 2026-05-08 20:06 | 24.52521 | -110.58525 | 29495 ft | 415 kts | 161° |
| 2026-05-08 20:07 | 24.49915 | -110.57173 | 29004 ft | 412 kts | 161° |
| 2026-05-08 20:07 | 24.47337 | -110.55836 | 28518 ft | 408 kts | 161° |
| 2026-05-08 20:07 | 24.44814 | -110.54530 | 28070 ft | 405 kts | 161° |
| 2026-05-08 20:07 | 24.42274 | -110.53218 | 27619 ft | 402 kts | 161° |
| 2026-05-08 20:08 | 24.39757 | -110.51921 | 27176 ft | 399 kts | 161° |
| 2026-05-08 20:08 | 24.37253 | -110.50631 | 26732 ft | 396 kts | 161° |
| 2026-05-08 20:08 | 24.34771 | -110.49353 | 26307 ft | 393 kts | 161° |
| 2026-05-08 20:08 | 24.32300 | -110.48081 | 25879 ft | 391 kts | 160° |
| 2026-05-08 20:09 | 24.29842 | -110.46816 | 25462 ft | 389 kts | 160° |
| 2026-05-08 20:09 | 24.27432 | -110.45576 | 25019 ft | 387 kts | 160° |
| 2026-05-08 20:09 | 24.25001 | -110.44326 | 24594 ft | 386 kts | 160° |
| 2026-05-08 20:09 | 24.22573 | -110.43077 | 24150 ft | 385 kts | 160° |
| 2026-05-08 20:10 | 24.20152 | -110.41833 | 23720 ft | 383 kts | 159° |
| 2026-05-08 20:10 | 24.17743 | -110.40595 | 23237 ft | 382 kts | 159° |
| 2026-05-08 20:10 | 24.15348 | -110.39364 | 22794 ft | 379 kts | 159° |
| 2026-05-08 20:10 | 24.12968 | -110.38142 | 22353 ft | 376 kts | 159° |
| 2026-05-08 20:11 | 24.10607 | -110.36930 | 21930 ft | 373 kts | 159° |
| 2026-05-08 20:11 | 24.08273 | -110.35709 | 21512 ft | 372 kts | 156° |
| 2026-05-08 20:11 | 24.06032 | -110.34293 | 21107 ft | 371 kts | 153° |
| 2026-05-08 20:11 | 24.03881 | -110.32813 | 20704 ft | 369 kts | 152° |
| 2026-05-08 20:12 | 24.01721 | -110.31297 | 20303 ft | 368 kts | 152° |
| 2026-05-08 20:12 | 23.99573 | -110.29791 | 19901 ft | 366 kts | 152° |
| 2026-05-08 20:12 | 23.97434 | -110.28303 | 19494 ft | 364 kts | 152° |
| 2026-05-08 20:12 | 23.95295 | -110.26826 | 19073 ft | 363 kts | 152° |
| 2026-05-08 20:13 | 23.93155 | -110.25358 | 18681 ft | 362 kts | 152° |
| 2026-05-08 20:13 | 23.91057 | -110.23922 | 18293 ft | 360 kts | 152° |
| 2026-05-08 20:13 | 23.88936 | -110.22474 | 17819 ft | 359 kts | 152° |
| 2026-05-08 20:13 | 23.86820 | -110.21031 | 17389 ft | 357 kts | 152° |
| 2026-05-08 20:14 | 23.84720 | -110.19600 | 16981 ft | 355 kts | 152° |
| 2026-05-08 20:14 | 23.82628 | -110.18175 | 16579 ft | 353 kts | 152° |
| 2026-05-08 20:14 | 23.80551 | -110.16761 | 16182 ft | 351 kts | 152° |
| 2026-05-08 20:14 | 23.78482 | -110.15353 | 15786 ft | 350 kts | 152° |
| 2026-05-08 20:15 | 23.76420 | -110.13950 | 15401 ft | 348 kts | 152° |
| 2026-05-08 20:15 | 23.74396 | -110.12573 | 15004 ft | 347 kts | 152° |
| 2026-05-08 20:15 | 23.72350 | -110.11183 | 14615 ft | 346 kts | 152° |
| 2026-05-08 20:15 | 23.70304 | -110.09793 | 14212 ft | 346 kts | 153° |
| 2026-05-08 20:16 | 23.68265 | -110.08409 | 13817 ft | 346 kts | 152° |
| 2026-05-08 20:16 | 23.66218 | -110.07020 | 13379 ft | 346 kts | 153° |
| 2026-05-08 20:16 | 23.64184 | -110.05637 | 12964 ft | 344 kts | 153° |
| 2026-05-08 20:16 | 23.62153 | -110.04258 | 12569 ft | 343 kts | 153° |
| 2026-05-08 20:17 | 23.60140 | -110.02890 | 12166 ft | 341 kts | 153° |
| 2026-05-08 20:17 | 23.58159 | -110.01546 | 11774 ft | 339 kts | 152° |
| 2026-05-08 20:17 | 23.56165 | -110.00196 | 11405 ft | 337 kts | 153° |
| 2026-05-08 20:17 | 23.54176 | -109.98852 | 11033 ft | 335 kts | 153° |
| 2026-05-08 20:18 | 23.52202 | -109.97512 | 10640 ft | 336 kts | 152° |
| 2026-05-08 20:18 | 23.50238 | -109.96180 | 10297 ft | 326 kts | 153° |
| 2026-05-08 20:18 | 23.48375 | -109.94908 | 10178 ft | 308 kts | 153° |
| 2026-05-08 20:18 | 23.46574 | -109.93693 | 10044 ft | 300 kts | 153° |
| 2026-05-08 20:19 | 23.44844 | -109.92414 | 9450 ft | 312 kts | 139° |
| 2026-05-08 20:19 | 23.43659 | -109.90391 | 8646 ft | 332 kts | 111° |
| 2026-05-08 20:19 | 23.43262 | -109.87903 | 7788 ft | 339 kts | 85° |
| 2026-05-08 20:19 | 23.44027 | -109.85575 | 7625 ft | 316 kts | 50° |
| 2026-05-08 20:20 | 23.45618 | -109.84150 | 7592 ft | 287 kts | 25° |
| 2026-05-08 20:20 | 23.47154 | -109.82899 | 7538 ft | 276 kts | 53° |
| 2026-05-08 20:20 | 23.47808 | -109.80970 | 7202 ft | 273 kts | 89° |
| 2026-05-08 20:20 | 23.47617 | -109.79028 | 7100 ft | 252 kts | 104° |
| 2026-05-08 20:21 | 23.47035 | -109.77270 | 6644 ft | 252 kts | 125° |
| 2026-05-08 20:21 | 23.45763 | -109.76005 | 6189 ft | 247 kts | 154° |
| 2026-05-08 20:21 | 23.44155 | -109.75459 | 5717 ft | 249 kts | 177° |
| 2026-05-08 20:21 | 23.42412 | -109.75272 | 5318 ft | 255 kts | 180° |
| 2026-05-08 20:22 | 23.40634 | -109.75092 | 4979 ft | 259 kts | 179° |
| 2026-05-08 20:22 | 23.38837 | -109.74900 | 4652 ft | 259 kts | 178° |
| 2026-05-08 20:22 | 23.37052 | -109.74703 | 4310 ft | 256 kts | 178° |
| 2026-05-08 20:22 | 23.35299 | -109.74504 | 4001 ft | 249 kts | 174° |
| 2026-05-08 20:23 | 23.33643 | -109.74295 | 3695 ft | 240 kts | 175° |
| 2026-05-08 20:23 | 23.32000 | -109.74120 | 3405 ft | 233 kts | 175° |
| 2026-05-08 20:23 | 23.30426 | -109.73947 | 3113 ft | 220 kts | 174° |
| 2026-05-08 20:23 | 23.28948 | -109.73785 | 2861 ft | 209 kts | 174° |
| 2026-05-08 20:24 | 23.27532 | -109.73623 | 2648 ft | 195 kts | 173° |
| 2026-05-08 20:24 | 23.26217 | -109.73474 | 2348 ft | 186 kts | 173° |
| 2026-05-08 20:24 | 23.24973 | -109.73332 | 2125 ft | 174 kts | 173° |
| 2026-05-08 20:24 | 23.23784 | -109.73147 | 1803 ft | 172 kts | 169° |
| 2026-05-08 20:25 | 23.22602 | -109.72961 | 1486 ft | 174 kts | 171° |
| 2026-05-08 20:25 | 23.21419 | -109.72768 | 1280 ft | 172 kts | 167° |
| 2026-05-08 20:25 | 23.20262 | -109.72585 | 1135 ft | 167 kts | 171° |
| 2026-05-08 20:25 | 23.19149 | -109.72468 | 1054 ft | 158 kts | 175° |
| 2026-05-08 20:26 | 23.18068 | -109.72410 | 804 ft | 153 kts | 174° |
| 2026-05-08 20:26 | 23.17054 | -109.72286 | 517 ft | 144 kts | 171° |
| 2026-05-08 20:26 | 23.16088 | -109.72171 | 381 ft | 135 kts | 174° |
| 2026-05-08 20:26 | 23.15300 | -109.72086 | 354 ft | 92 kts | 174° |
| 2026-05-08 20:27 | 23.14838 | -109.72033 | 348 ft | 35 kts | 173° |
| 2026-05-08 20:27 | 23.14615 | -109.71953 | 336 ft | 31 kts | 148° |
| 2026-05-08 20:27 | 23.14488 | -109.71854 | 327 ft | 9 kts | 138° |
| 2026-05-08 20:27 | 23.14499 | -109.71796 | 324 ft | 10 kts | 24° |
| 2026-05-08 20:28 | 23.14566 | -109.71796 | 328 ft | 10 kts | 357° |
| 2026-05-08 20:28 | 23.14632 | -109.71804 | 328 ft | 9 kts | 353° |
| 2026-05-08 20:28 | 23.14695 | -109.71812 | 331 ft | 9 kts | 353° |
| 2026-05-08 20:28 | 23.14757 | -109.71820 | 337 ft | 9 kts | 354° |
| 2026-05-08 20:29 | 23.14817 | -109.71826 | 338 ft | 9 kts | 355° |
| 2026-05-08 20:29 | 23.14881 | -109.71832 | 349 ft | 11 kts | 355° |
| 2026-05-08 20:29 | 23.14981 | -109.71844 | 347 ft | 18 kts | 354° |
| 2026-05-08 20:29 | 23.15127 | -109.71860 | 354 ft | 24 kts | 353° |
| 2026-05-08 20:30 | 23.15314 | -109.71882 | 359 ft | 29 kts | 354° |
| 2026-05-08 20:30 | 23.15481 | -109.71900 | 359 ft | 18 kts | 354° |
| 2026-05-08 20:30 | 23.15586 | -109.71909 | 365 ft | 12 kts | 13° |
| 2026-05-08 20:30 | 23.15623 | -109.71847 | 363 ft | 0 kts | 49° |
| 2026-05-08 20:31 | 23.15629 | -109.71838 | 366 ft | 4 kts | 54° |
| 2026-05-08 20:32 | 23.15639 | -109.71791 | 366 ft | 6 kts | 84° |
| 2026-05-08 20:32 | 23.15641 | -109.71773 | 362 ft | 1 kts | 83° |
| 2026-05-08 20:32 | 23.15641 | -109.71770 | 362 ft | 0 kts | 83° |